PWSweather.com
Personal Weather Stations
Station Observations
KMNZUMBR2
Covered Bridge Park, Zumbrota, MN 55992

Covered Bridge ParkZumbrota, MN 55992

Lat: 44.302051, Lon: -92.674974

Elevation: 928

Station Type: Davis Vantage Pro 2 Plus

Latest ConditionsUpdated 3:10:01 PM CST Sunday, Jan 19, 2020
Currently Today's Max Today's Min Today's Average
Temperature 10.3°F-12.1°C 11.4°F-11.4°C -2.0°F-18.9°C 3.6°F-15.8°C
Dew Point 6.4°F-14.2°C 6.9°F-13.9°C -7.9°F-22.2°C -1.8°F-18.8°C
Winds 3.5 mph W5.6 kmh W 9.2 mph -14.8 kmh - - 6.3 mph 10.1 kmh
Wind Gusts 8.1 mph13.0 kmh 19.6 mph31.5 kmh - -
Humidity 84% 84% 70% 78%
Pressure 30.59 in1035.9 mb 30.59 in1035.9 mb 30.22 in1023.4 mb -
Hour Temp Dew Point Humidity Winds Wind Gusts Pressure Precip Precip Rate Daily Precip Total
03:10 PM 10.3°F-12.1°C 6.4°F-14.2°C 84% 3.5 mph W5.6 kmh W 8.1 mph13.0 kmh 30.59 in1035.9 mb - 0.00 in0.0 mm 0.00 in0.0 mm
03:00 PM 10.4°F-12.0°C 6.6°F-14.1°C 84% 6.9 mph WSW11.1 kmh WSW 11.5 mph18.5 kmh 30.59 in1035.9 mb - 0.00 in0.0 mm 0.00 in0.0 mm
02:50 PM 10.4°F-12.0°C 6.5°F-14.2°C 84% 5.8 mph NW9.3 kmh NW 11.5 mph18.5 kmh 30.58 in1035.6 mb - 0.00 in0.0 mm 0.00 in0.0 mm
02:40 PM 10.8°F-11.8°C 6.9°F-13.9°C 84% 8.1 mph WNW13.0 kmh WNW 11.5 mph18.5 kmh 30.57 in1035.2 mb - 0.00 in0.0 mm 0.00 in0.0 mm
02:30 PM 10.6°F-11.9°C 6.7°F-14.1°C 84% 3.5 mph WNW5.6 kmh WNW 6.9 mph11.1 kmh 30.57 in1035.2 mb - 0.00 in0.0 mm 0.00 in0.0 mm
02:20 PM 10.7°F-11.8°C 6.8°F-14.0°C 84% 3.5 mph WNW5.6 kmh WNW 12.7 mph20.4 kmh 30.57 in1035.2 mb - 0.00 in0.0 mm 0.00 in0.0 mm
02:10 PM 10.8°F-11.8°C 6.9°F-13.9°C 84% 6.9 mph W11.1 kmh W 8.1 mph13.0 kmh 30.57 in1035.2 mb - 0.00 in0.0 mm 0.00 in0.0 mm
02:00 PM 11.2°F-11.6°C 5.4°F-14.8°C 77% 6.9 mph WNW11.1 kmh WNW 9.2 mph14.8 kmh 30.57 in1035.2 mb - 0.00 in0.0 mm 0.00 in0.0 mm
01:50 PM 11.1°F-11.6°C 5.3°F-14.8°C 77% 3.5 mph W5.6 kmh W 6.9 mph11.1 kmh 30.57 in1035.2 mb - 0.00 in0.0 mm 0.00 in0.0 mm
01:40 PM 11.0°F-11.7°C 5.2°F-14.9°C 77% 5.8 mph W9.3 kmh W 11.5 mph18.5 kmh 30.57 in1035.2 mb - 0.00 in0.0 mm 0.00 in0.0 mm
01:30 PM 11.4°F-11.4°C 5.6°F-14.7°C 77% 4.6 mph NW7.4 kmh NW 11.5 mph18.5 kmh 30.57 in1035.2 mb - 0.00 in0.0 mm 0.00 in0.0 mm
01:20 PM 11.4°F-11.4°C 5.5°F-14.7°C 77% 2.3 mph WNW3.7 kmh WNW 9.2 mph14.8 kmh 30.57 in1035.2 mb - 0.00 in0.0 mm 0.00 in0.0 mm
01:10 PM 11.4°F-11.4°C 5.6°F-14.7°C 77% 6.9 mph WNW11.1 kmh WNW 9.2 mph14.8 kmh 30.57 in1035.2 mb - 0.00 in0.0 mm 0.00 in0.0 mm
01:00 PM 10.3°F-12.1°C 4.5°F-15.3°C 77% 5.8 mph WNW9.3 kmh WNW 8.1 mph13.0 kmh 30.57 in1035.2 mb - 0.00 in0.0 mm 0.00 in0.0 mm
12:50 PM 9.9°F-12.3°C 4.1°F-15.5°C 77% 6.9 mph NW11.1 kmh NW 11.5 mph18.5 kmh 30.56 in1034.9 mb - 0.00 in0.0 mm 0.00 in0.0 mm
12:40 PM 9.9°F-12.3°C 4.1°F-15.5°C 77% 8.1 mph W13.0 kmh W 11.5 mph18.5 kmh 30.56 in1034.9 mb - 0.00 in0.0 mm 0.00 in0.0 mm
12:30 PM 9.4°F-12.6°C 3.6°F-15.8°C 77% 5.8 mph WNW9.3 kmh WNW 6.9 mph11.1 kmh 30.56 in1034.9 mb - 0.00 in0.0 mm 0.00 in0.0 mm
12:20 PM 9.0°F-12.8°C 3.3°F-15.9°C 77% 9.2 mph NW14.8 kmh NW 11.5 mph18.5 kmh 30.56 in1034.9 mb - 0.00 in0.0 mm 0.00 in0.0 mm
12:10 PM 8.7°F-12.9°C 3.0°F-16.1°C 77% 8.1 mph NW13.0 kmh NW 10.4 mph16.7 kmh 30.55 in1034.5 mb - 0.00 in0.0 mm 0.00 in0.0 mm
12:00 PM 8.7°F-12.9°C 4.9°F-15.1°C 84% 8.1 mph WNW13.0 kmh WNW 11.5 mph18.5 kmh 30.55 in1034.5 mb - 0.00 in0.0 mm 0.00 in0.0 mm
11:50 AM 8.7°F-12.9°C 4.8°F-15.1°C 84% 8.1 mph WNW13.0 kmh WNW 11.5 mph18.5 kmh 30.55 in1034.5 mb - 0.00 in0.0 mm 0.00 in0.0 mm
11:40 AM 8.4°F-13.1°C 4.5°F-15.3°C 84% 3.5 mph WNW5.6 kmh WNW 9.2 mph14.8 kmh 30.55 in1034.5 mb - 0.00 in0.0 mm 0.00 in0.0 mm
11:30 AM 8.2°F-13.2°C 4.4°F-15.3°C 84% 8.1 mph NW13.0 kmh NW 11.5 mph18.5 kmh 30.54 in1034.2 mb - 0.00 in0.0 mm 0.00 in0.0 mm
11:20 AM 7.9°F-13.4°C 4.1°F-15.5°C 84% 8.1 mph WNW13.0 kmh WNW 12.7 mph20.4 kmh 30.54 in1034.2 mb - 0.00 in0.0 mm 0.00 in0.0 mm
11:10 AM 8.0°F-13.3°C 4.2°F-15.4°C 84% 8.1 mph WNW13.0 kmh WNW 10.4 mph16.7 kmh 30.54 in1034.2 mb - 0.00 in0.0 mm 0.00 in0.0 mm
11:00 AM 7.8°F-13.4°C 2.1°F-16.6°C 77% 9.2 mph NW14.8 kmh NW 12.7 mph20.4 kmh 30.54 in1034.2 mb - 0.00 in0.0 mm 0.00 in0.0 mm
10:50 AM 7.4°F-13.7°C 1.7°F-16.8°C 77% 5.8 mph NW9.3 kmh NW 11.5 mph18.5 kmh 30.54 in1034.2 mb - 0.00 in0.0 mm 0.00 in0.0 mm
10:40 AM 6.9°F-13.9°C 1.3°F-17.1°C 77% 4.6 mph W7.4 kmh W 8.1 mph13.0 kmh 30.54 in1034.2 mb - 0.00 in0.0 mm 0.00 in0.0 mm
10:30 AM 6.7°F-14.1°C 1.0°F-17.2°C 77% 5.8 mph WNW9.3 kmh WNW 10.4 mph16.7 kmh 30.53 in1033.9 mb - 0.00 in0.0 mm 0.00 in0.0 mm
10:20 AM 6.5°F-14.2°C 0.8°F-17.3°C 77% 4.6 mph NW7.4 kmh NW 9.2 mph14.8 kmh 30.53 in1033.9 mb - 0.00 in0.0 mm 0.00 in0.0 mm
10:10 AM 6.1°F-14.4°C 0.5°F-17.5°C 77% 6.9 mph NW11.1 kmh NW 11.5 mph18.5 kmh 30.52 in1033.5 mb - 0.00 in0.0 mm 0.00 in0.0 mm
10:00 AM 5.7°F-14.6°C 0.0°F-17.8°C 77% 5.8 mph NW9.3 kmh NW 8.1 mph13.0 kmh 30.52 in1033.5 mb - 0.00 in0.0 mm 0.00 in0.0 mm
09:50 AM 5.6°F-14.7°C -0.1°F-17.8°C 77% 5.8 mph WNW9.3 kmh WNW 9.2 mph14.8 kmh 30.52 in1033.5 mb - 0.00 in0.0 mm 0.00 in0.0 mm
09:40 AM 5.1°F-14.9°C -0.6°F-18.1°C 77% 3.5 mph NW5.6 kmh NW 3.5 mph5.6 kmh 30.51 in1033.2 mb - 0.00 in0.0 mm 0.00 in0.0 mm
09:30 AM 4.5°F-15.3°C -1.1°F-18.4°C 77% 8.1 mph NW13.0 kmh NW 8.1 mph13.0 kmh 30.51 in1033.2 mb - 0.00 in0.0 mm 0.00 in0.0 mm
09:20 AM 4.1°F-15.5°C -1.5°F-18.6°C 77% 4.6 mph NW7.4 kmh NW 10.4 mph16.7 kmh 30.50 in1032.8 mb - 0.00 in0.0 mm 0.00 in0.0 mm
09:10 AM 3.6°F-15.8°C -2.0°F-18.9°C 77% 6.9 mph W11.1 kmh W 8.1 mph13.0 kmh 30.50 in1032.8 mb - 0.00 in0.0 mm 0.00 in0.0 mm
09:00 AM 3.4°F-15.9°C -0.4°F-18.0°C 84% 5.8 mph NW9.3 kmh NW 11.5 mph18.5 kmh 30.50 in1032.8 mb - 0.00 in0.0 mm 0.00 in0.0 mm
08:50 AM 3.2°F-16.0°C -0.5°F-18.1°C 84% 4.6 mph NW7.4 kmh NW 8.1 mph13.0 kmh 30.50 in1032.8 mb - 0.00 in0.0 mm 0.00 in0.0 mm
08:40 AM 3.0°F-16.1°C -0.7°F-18.2°C 84% 4.6 mph W7.4 kmh W 8.1 mph13.0 kmh 30.49 in1032.5 mb - 0.00 in0.0 mm 0.00 in0.0 mm
08:30 AM 2.8°F-16.2°C -0.9°F-18.3°C 84% 4.6 mph WSW7.4 kmh WSW 8.1 mph13.0 kmh 30.48 in1032.2 mb - 0.00 in0.0 mm 0.00 in0.0 mm
08:20 AM 2.5°F-16.4°C -1.2°F-18.4°C 84% 4.6 mph W7.4 kmh W 11.5 mph18.5 kmh 30.48 in1032.2 mb - 0.00 in0.0 mm 0.00 in0.0 mm
08:10 AM 2.3°F-16.5°C -1.4°F-18.6°C 84% 8.1 mph WNW13.0 kmh WNW 8.1 mph13.0 kmh 30.48 in1032.2 mb - 0.00 in0.0 mm 0.00 in0.0 mm
08:00 AM 2.1°F-16.6°C -3.5°F-19.7°C 77% 4.6 mph WNW7.4 kmh WNW 8.1 mph13.0 kmh 30.47 in1031.8 mb - 0.00 in0.0 mm 0.00 in0.0 mm
07:50 AM 2.0°F-16.7°C -3.6°F-19.8°C 77% 4.6 mph WNW7.4 kmh WNW 9.2 mph14.8 kmh 30.46 in1031.5 mb - 0.00 in0.0 mm 0.00 in0.0 mm
07:40 AM 1.8°F-16.8°C -3.7°F-19.8°C 77% 4.6 mph W7.4 kmh W 6.9 mph11.1 kmh 30.46 in1031.5 mb - 0.00 in0.0 mm 0.00 in0.0 mm
07:30 AM 1.8°F-16.8°C -3.8°F-19.9°C 77% 3.5 mph WNW5.6 kmh WNW 4.6 mph7.4 kmh 30.46 in1031.5 mb - 0.00 in0.0 mm 0.00 in0.0 mm
07:20 AM 1.7°F-16.8°C -3.8°F-19.9°C 77% 5.8 mph NW9.3 kmh NW 6.9 mph11.1 kmh 30.45 in1031.2 mb - 0.00 in0.0 mm 0.00 in0.0 mm
07:10 AM 1.7°F-16.8°C -3.9°F-19.9°C 77% 5.8 mph WNW9.3 kmh WNW 11.5 mph18.5 kmh 30.44 in1030.8 mb - 0.00 in0.0 mm 0.00 in0.0 mm
07:00 AM 1.6°F-16.9°C -3.9°F-19.9°C 77% 1.2 mph NW1.9 kmh NW 3.5 mph5.6 kmh 30.43 in1030.5 mb - 0.00 in0.0 mm 0.00 in0.0 mm
06:50 AM 1.5°F-16.9°C -4.0°F-20.0°C 77% 6.9 mph W11.1 kmh W 8.1 mph13.0 kmh 30.43 in1030.5 mb - 0.00 in0.0 mm 0.00 in0.0 mm
06:40 AM 1.4°F-17.0°C -4.1°F-20.1°C 77% 6.9 mph WNW11.1 kmh WNW 11.5 mph18.5 kmh 30.42 in1030.1 mb - 0.00 in0.0 mm 0.00 in0.0 mm
06:30 AM 1.3°F-17.1°C -4.2°F-20.1°C 77% 3.5 mph NW5.6 kmh NW 5.8 mph9.3 kmh 30.42 in1030.1 mb - 0.00 in0.0 mm 0.00 in0.0 mm
06:20 AM 1.2°F-17.1°C -4.3°F-20.2°C 77% 5.8 mph NW9.3 kmh NW 8.1 mph13.0 kmh 30.41 in1029.8 mb - 0.00 in0.0 mm 0.00 in0.0 mm
06:10 AM 1.0°F-17.2°C -4.5°F-20.3°C 77% 5.8 mph NW9.3 kmh NW 11.5 mph18.5 kmh 30.41 in1029.8 mb - 0.00 in0.0 mm 0.00 in0.0 mm
06:00 AM 0.9°F-17.3°C -4.6°F-20.3°C 77% 6.9 mph WNW11.1 kmh WNW 10.4 mph16.7 kmh 30.39 in1029.1 mb - 0.00 in0.0 mm 0.00 in0.0 mm
05:50 AM 0.8°F-17.3°C -4.7°F-20.4°C 77% 5.8 mph WNW9.3 kmh WNW 11.5 mph18.5 kmh 30.39 in1029.1 mb - 0.00 in0.0 mm 0.00 in0.0 mm
05:40 AM 0.7°F-17.4°C -4.8°F-20.4°C 77% 5.8 mph NW9.3 kmh NW 6.9 mph11.1 kmh 30.38 in1028.8 mb - 0.00 in0.0 mm 0.00 in0.0 mm
05:30 AM 0.6°F-17.4°C -4.9°F-20.5°C 77% 8.1 mph WNW13.0 kmh WNW 11.5 mph18.5 kmh 30.38 in1028.8 mb - 0.00 in0.0 mm 0.00 in0.0 mm
05:20 AM 0.5°F-17.5°C -5.0°F-20.6°C 77% 5.8 mph WNW9.3 kmh WNW 9.2 mph14.8 kmh 30.37 in1028.4 mb - 0.00 in0.0 mm 0.00 in0.0 mm
05:10 AM 0.3°F-17.6°C -5.2°F-20.7°C 77% 8.1 mph NW13.0 kmh NW 16.1 mph25.9 kmh 30.37 in1028.4 mb - 0.00 in0.0 mm 0.00 in0.0 mm
05:00 AM 0.3°F-17.6°C -5.2°F-20.7°C 77% 6.9 mph NW11.1 kmh NW 10.4 mph16.7 kmh 30.36 in1028.1 mb - 0.00 in0.0 mm 0.00 in0.0 mm
04:50 AM 0.2°F-17.7°C -5.3°F-20.7°C 77% 6.9 mph NW11.1 kmh NW 10.4 mph16.7 kmh 30.36 in1028.1 mb - 0.00 in0.0 mm 0.00 in0.0 mm
04:40 AM 0.1°F-17.7°C -5.4°F-20.8°C 77% 6.9 mph WNW11.1 kmh WNW 10.4 mph16.7 kmh 30.35 in1027.8 mb - 0.00 in0.0 mm 0.00 in0.0 mm
04:30 AM 0.1°F-17.7°C -5.4°F-20.8°C 77% 5.8 mph NW9.3 kmh NW 11.5 mph18.5 kmh 30.35 in1027.8 mb - 0.00 in0.0 mm 0.00 in0.0 mm
04:20 AM 0.1°F-17.7°C -5.4°F-20.8°C 77% 6.9 mph WNW11.1 kmh WNW 12.7 mph20.4 kmh 30.34 in1027.4 mb - 0.00 in0.0 mm 0.00 in0.0 mm
04:10 AM 0.1°F-17.7°C -5.5°F-20.8°C 77% 5.8 mph WNW9.3 kmh WNW 13.8 mph22.2 kmh 30.34 in1027.4 mb - 0.00 in0.0 mm 0.00 in0.0 mm
04:00 AM 0.0°F-17.8°C -7.5°F-21.9°C 70% 6.9 mph NW11.1 kmh NW 9.2 mph14.8 kmh 30.33 in1027.1 mb - 0.00 in0.0 mm 0.00 in0.0 mm
03:50 AM -0.1°F-17.8°C -7.6°F-22.0°C 70% 8.1 mph WNW13.0 kmh WNW 16.1 mph25.9 kmh 30.32 in1026.8 mb - 0.00 in0.0 mm 0.00 in0.0 mm
03:40 AM -0.2°F-17.9°C -7.6°F-22.0°C 70% 3.5 mph NW5.6 kmh NW 9.2 mph14.8 kmh 30.32 in1026.8 mb - 0.00 in0.0 mm 0.00 in0.0 mm
03:30 AM -0.3°F-17.9°C -7.8°F-22.1°C 70% 4.6 mph WNW7.4 kmh WNW 11.5 mph18.5 kmh 30.31 in1026.4 mb - 0.00 in0.0 mm 0.00 in0.0 mm
03:20 AM -0.4°F-18.0°C -7.9°F-22.2°C 70% 6.9 mph WNW11.1 kmh WNW 15.0 mph24.1 kmh 30.31 in1026.4 mb - 0.00 in0.0 mm 0.00 in0.0 mm
03:10 AM -0.4°F-18.0°C -7.9°F-22.2°C 70% 8.1 mph WNW13.0 kmh WNW 10.4 mph16.7 kmh 30.30 in1026.1 mb - 0.00 in0.0 mm 0.00 in0.0 mm
03:00 AM -0.6°F-18.1°C -6.4°F-21.3°C 76% 9.2 mph NW14.8 kmh NW 12.7 mph20.4 kmh 30.30 in1026.1 mb - 0.00 in0.0 mm 0.00 in0.0 mm
02:50 AM -0.7°F-18.2°C -6.5°F-21.4°C 76% 8.1 mph WNW13.0 kmh WNW 11.5 mph18.5 kmh 30.30 in1026.1 mb - 0.00 in0.0 mm 0.00 in0.0 mm
02:40 AM -0.9°F-18.3°C -6.6°F-21.4°C 76% 8.1 mph WNW13.0 kmh WNW 11.5 mph18.5 kmh 30.29 in1025.7 mb - 0.00 in0.0 mm 0.00 in0.0 mm
02:30 AM -0.9°F-18.3°C -6.7°F-21.5°C 76% 6.9 mph WNW11.1 kmh WNW 8.1 mph13.0 kmh 30.29 in1025.7 mb - 0.00 in0.0 mm 0.00 in0.0 mm
02:20 AM -1.0°F-18.3°C -6.7°F-21.5°C 76% 5.8 mph NW9.3 kmh NW 9.2 mph14.8 kmh 30.28 in1025.4 mb - 0.00 in0.0 mm 0.00 in0.0 mm
02:10 AM -1.0°F-18.3°C -6.7°F-21.5°C 76% 5.8 mph NW9.3 kmh NW 11.5 mph18.5 kmh 30.28 in1025.4 mb - 0.00 in0.0 mm 0.00 in0.0 mm
02:00 AM -1.0°F-18.3°C -6.7°F-21.5°C 76% 4.6 mph W7.4 kmh W 10.4 mph16.7 kmh 30.27 in1025.1 mb - 0.00 in0.0 mm 0.00 in0.0 mm
01:50 AM -1.1°F-18.4°C -6.8°F-21.6°C 76% 6.9 mph WNW11.1 kmh WNW 11.5 mph18.5 kmh 30.27 in1025.1 mb - 0.00 in0.0 mm 0.00 in0.0 mm
01:40 AM -1.2°F-18.4°C -6.9°F-21.6°C 76% 8.1 mph WNW13.0 kmh WNW 11.5 mph18.5 kmh 30.26 in1024.7 mb - 0.00 in0.0 mm 0.00 in0.0 mm
01:30 AM -1.4°F-18.6°C -7.1°F-21.7°C 76% 5.8 mph NW9.3 kmh NW 10.4 mph16.7 kmh 30.26 in1024.7 mb - 0.00 in0.0 mm 0.00 in0.0 mm
01:20 AM -1.6°F-18.7°C -7.3°F-21.8°C 76% 6.9 mph WNW11.1 kmh WNW 16.1 mph25.9 kmh 30.25 in1024.4 mb - 0.00 in0.0 mm 0.00 in0.0 mm
01:10 AM -1.8°F-18.8°C -7.5°F-21.9°C 76% 5.8 mph NW9.3 kmh NW 15.0 mph24.1 kmh 30.25 in1024.4 mb - 0.00 in0.0 mm 0.00 in0.0 mm
01:00 AM -1.9°F-18.8°C -7.6°F-22.0°C 76% 8.1 mph WNW13.0 kmh WNW 12.7 mph20.4 kmh 30.25 in1024.4 mb - 0.00 in0.0 mm 0.00 in0.0 mm
12:50 AM -2.0°F-18.9°C -7.7°F-22.1°C 76% 8.1 mph WNW13.0 kmh WNW 10.4 mph16.7 kmh 30.24 in1024.0 mb - 0.00 in0.0 mm 0.00 in0.0 mm
12:40 AM -1.9°F-18.8°C -7.6°F-22.0°C 76% 8.1 mph WNW13.0 kmh WNW 13.8 mph22.2 kmh 30.23 in1023.7 mb - 0.00 in0.0 mm 0.00 in0.0 mm
12:30 AM -1.9°F-18.8°C -7.6°F-22.0°C 76% 8.1 mph W13.0 kmh W 19.6 mph31.5 kmh 30.23 in1023.7 mb - 0.00 in0.0 mm 0.00 in0.0 mm
12:20 AM -1.9°F-18.8°C -7.6°F-22.0°C 76% 9.2 mph NW14.8 kmh NW 11.5 mph18.5 kmh 30.23 in1023.7 mb - 0.00 in0.0 mm 0.00 in0.0 mm
12:10 AM -1.9°F-18.8°C -7.6°F-22.0°C 76% 9.2 mph WNW14.8 kmh WNW 12.7 mph20.4 kmh 30.22 in1023.4 mb - 0.00 in0.0 mm 0.00 in0.0 mm
12:00 AM -1.9°F-18.8°C -7.6°F-22.0°C 76% 6.9 mph WNW11.1 kmh WNW 11.5 mph18.5 kmh 30.22 in1023.4 mb - 0.00 in0.0 mm 0.00 in0.0 mm